Time;durP1;ratioP1;P1;durP2;ratioP2;P2;SDS_P1;SDS_P2;PMS_P1;PMS_P2;Temp;Humidity;BMP_temperature;BMP_pressure;BME280_temperature;BME280_humidity;BME280_pressure;Samples;Min_cycle;Max_cycle;Signal;HPM_P1;HPM_P2
2022/04/25 00:01:16;;;;;;;5.72;3.67;;;;;;;13.80;83.61;99841.78;5010741;28;20038;-75
2022/04/25 00:03:42;;;;;;;5.95;3.47;;;;;;;13.65;83.66;99792.28;5009200;28;20038;-76
2022/04/25 00:06:08;;;;;;;8.93;3.58;;;;;;;13.60;83.88;99800.00;5016762;28;20034;-73
2022/04/25 00:08:34;;;;;;;6.13;3.38;;;;;;;13.53;84.81;99814.63;5048802;28;20116;-75
2022/04/25 00:11:00;;;;;;;9.95;4.05;;;;;;;13.44;86.27;99822.25;5052786;28;20106;-74
2022/04/25 00:13:26;;;;;;;7.38;3.55;;;;;;;13.31;87.62;99821.16;5053085;28;20036;-74
2022/04/25 00:15:52;;;;;;;6.68;3.47;;;;;;;13.33;88.08;99829.81;5053078;28;20028;-76
2022/04/25 00:18:18;;;;;;;5.60;3.65;;;;;;;13.03;88.28;99789.63;5052804;28;20503;-76
2022/04/25 00:20:44;;;;;;;8.15;4.03;;;;;;;13.23;87.73;99822.75;5053210;28;20068;-73
2022/04/25 00:23:09;;;;;;;7.90;3.70;;;;;;;13.26;87.81;99833.19;5052462;28;20080;-73
2022/04/25 00:25:36;;;;;;;6.95;3.83;;;;;;;13.10;87.94;99814.78;5052781;28;20032;-73
2022/04/25 00:28:03;;;;;;;8.65;3.83;;;;;;;13.05;88.00;99797.44;5052363;28;20025;-76
2022/04/25 00:30:29;;;;;;;8.27;4.00;;;;;;;13.16;88.95;99816.63;5052631;28;20025;-74
2022/04/25 00:32:56;;;;;;;7.95;4.07;;;;;;;13.11;88.93;99819.13;5053517;28;20033;-71
2022/04/25 00:35:22;;;;;;;5.53;3.95;;;;;;;13.08;88.75;99826.88;5053371;28;20020;-74
2022/04/25 00:37:48;;;;;;;10.38;3.97;;;;;;;13.00;88.65;99823.28;5053334;28;20021;-73
2022/04/25 00:40:15;;;;;;;5.82;3.70;;;;;;;13.10;88.12;99824.28;5053075;28;20040;-74
2022/04/25 00:42:41;;;;;;;9.80;4.05;;;;;;;12.82;87.47;99782.38;5053103;28;20076;-75
2022/04/25 00:45:09;;;;;;;6.30;3.80;;;;;;;13.02;87.07;99812.91;5053254;28;20044;-73
2022/04/25 00:47:35;;;;;;;9.98;4.40;;;;;;;12.90;86.90;99783.38;5053320;28;20025;-73
2022/04/25 00:50:01;;;;;;;7.78;3.80;;;;;;;13.05;86.97;99816.44;5052940;28;20420;-74
2022/04/25 00:52:26;;;;;;;9.73;4.25;;;;;;;12.98;86.76;99804.22;5053306;28;20029;-74
2022/04/25 00:54:52;;;;;;;7.47;4.22;;;;;;;12.82;87.76;99816.03;5052788;28;20040;-73
2022/04/25 00:57:17;;;;;;;6.88;4.00;;;;;;;12.59;88.87;99820.84;5052803;28;20504;-73
2022/04/25 00:59:44;;;;;;;7.15;4.07;;;;;;;12.48;89.66;99818.03;5052640;28;20053;-74
2022/04/25 01:02:10;;;;;;;5.75;4.07;;;;;;;12.11;90.20;99775.91;5052945;28;20408;-73
2022/04/25 01:04:35;;;;;;;6.50;3.95;;;;;;;12.18;91.25;99815.75;5051904;28;20029;-73
2022/04/25 01:07:01;;;;;;;8.18;3.92;;;;;;;12.08;91.55;99802.59;5052598;28;20025;-73
2022/04/25 01:09:26;;;;;;;9.57;4.43;;;;;;;12.14;91.47;99812.22;5052616;28;20151;-76
2022/04/25 01:11:52;;;;;;;10.35;4.47;;;;;;;12.05;91.14;99797.38;5052534;28;20112;-73
2022/04/25 01:14:20;;;;;;;8.95;4.47;;;;;;;12.05;91.35;99807.72;5052513;28;20043;-73
2022/04/25 01:16:47;;;;;;;6.90;4.18;;;;;;;12.07;91.69;99811.22;5052282;28;20033;-74
2022/04/25 01:19:13;;;;;;;7.82;5.13;;;;;;;12.03;91.65;99804.22;5016933;28;20056;-73
2022/04/25 01:21:44;;;;;;;8.73;4.85;;;;;;;12.05;91.71;99802.56;5053013;28;20029;-74
2022/04/25 01:29:39;;;;;;;5.93;4.22;;;;;;;11.71;89.79;99703.53;5052470;28;20491;-73
2022/04/25 01:32:05;;;;;;;8.15;4.57;;;;;;;12.20;89.68;99795.94;5052316;28;20029;-70
2022/04/25 01:34:32;;;;;;;9.07;4.85;;;;;;;12.21;90.04;99802.84;5052647;28;20025;-72
2022/04/25 01:36:58;;;;;;;9.13;4.80;;;;;;;12.10;90.29;99798.34;5052272;28;20028;-76
2022/04/25 01:39:24;;;;;;;6.82;4.53;;;;;;;12.11;90.16;99801.78;5052480;28;20112;-73
2022/04/25 01:41:49;;;;;;;9.65;4.38;;;;;;;12.10;90.04;99793.16;5052421;28;20080;-72
2022/04/25 01:44:15;;;;;;;10.07;4.50;;;;;;;12.20;89.53;99786.47;5052126;28;20017;-73
2022/04/25 01:46:40;;;;;;;6.30;4.53;;;;;;;12.16;89.17;99778.59;5052357;28;20063;-73
2022/04/25 01:49:06;;;;;;;11.30;5.38;;;;;;;12.18;89.00;99785.56;5052455;28;20468;-73
2022/04/25 01:51:32;;;;;;;8.65;4.43;;;;;;;12.21;88.78;99780.44;5052232;28;20031;-70
2022/04/25 01:53:58;;;;;;;7.78;4.60;;;;;;;12.11;88.75;99763.88;5051996;28;20025;-73
2022/04/25 01:56:23;;;;;;;6.40;4.55;;;;;;;12.10;89.12;99785.41;5051885;28;20083;-72
2022/04/25 01:58:48;;;;;;;8.45;4.13;;;;;;;11.91;89.55;99778.97;5051935;28;20025;-73
2022/04/25 02:01:14;;;;;;;7.30;4.80;;;;;;;11.63;91.01;99777.53;5052066;28;20029;-72
2022/04/25 02:03:40;;;;;;;7.18;4.47;;;;;;;11.83;90.97;99788.28;5051919;28;20082;-73
2022/04/25 02:06:06;;;;;;;7.97;4.38;;;;;;;11.48;92.43;99791.84;5051805;28;20025;-72
2022/04/25 02:08:31;;;;;;;7.78;4.80;;;;;;;10.99;93.89;99751.94;5051735;28;20040;-72
2022/04/25 02:13:51;;;;;;;7.90;4.88;;;;;;;11.60;91.93;99787.78;5029051;28;20048;-73
2022/04/25 02:16:17;;;;;;;7.03;5.10;;;;;;;11.72;91.11;99793.22;5028044;28;20071;-73
2022/04/25 02:18:43;;;;;;;7.53;4.43;;;;;;;11.72;90.73;99795.78;5028857;28;20179;-73
2022/04/25 02:21:09;;;;;;;7.47;4.00;;;;;;;11.73;90.20;99801.84;5028935;28;20037;-73
2022/04/25 02:23:34;;;;;;;5.57;4.18;;;;;;;11.41;89.80;99756.34;5028563;28;20080;-73
2022/04/25 02:26:00;;;;;;;7.15;4.18;;;;;;;11.12;92.08;99797.91;4995738;28;20053;-73
2022/04/25 02:28:27;;;;;;;8.48;3.80;;;;;;;11.25;92.11;99806.84;5028753;28;20501;-73
2022/04/25 02:30:53;;;;;;;6.65;4.22;;;;;;;11.17;92.19;99806.63;5028909;28;20038;-73
2022/04/25 02:33:19;;;;;;;5.75;3.90;;;;;;;11.30;91.99;99796.59;5028893;28;20489;-73
2022/04/25 02:35:44;;;;;;;5.88;3.75;;;;;;;11.06;91.10;99751.25;5029002;28;20029;-72
2022/04/25 02:38:10;;;;;;;5.70;3.97;;;;;;;11.47;90.71;99787.50;5028855;28;20056;-73
2022/04/25 02:40:36;;;;;;;6.78;3.85;;;;;;;11.53;90.31;99797.13;5029025;28;20029;-73
2022/04/25 02:43:01;;;;;;;6.82;4.03;;;;;;;11.61;90.08;99790.41;5028536;28;20045;-73
2022/04/25 02:45:27;;;;;;;7.72;4.65;;;;;;;11.38;89.45;99745.09;5028568;28;20103;-74
2022/04/25 02:47:53;;;;;;;7.07;4.10;;;;;;;11.56;89.68;99786.84;5028685;28;20124;-73
2022/04/25 02:50:19;;;;;;;5.90;4.20;;;;;;;11.25;91.78;99799.09;5037225;28;20496;-73
2022/04/25 02:52:45;;;;;;;7.65;4.65;;;;;;;11.22;91.27;99782.63;5051021;28;20060;-73
2022/04/25 02:55:10;;;;;;;8.45;4.53;;;;;;;11.07;91.91;99771.09;5050987;28;20056;-73
2022/04/25 02:57:36;;;;;;;8.20;4.72;;;;;;;11.44;91.07;99797.78;5051115;28;20159;-73
2022/04/25 03:00:01;;;;;;;5.90;4.20;;;;;;;11.69;89.75;99803.50;5050595;28;20036;-73
2022/04/25 03:02:27;;;;;;;5.45;4.43;;;;;;;11.78;88.83;99789.91;5051082;28;20064;-73
2022/04/25 03:04:53;;;;;;;5.57;4.10;;;;;;;11.98;88.35;99805.84;5050927;28;20029;-74
2022/04/25 03:07:18;;;;;;;17.38;5.50;;;;;;;12.17;87.47;99794.16;5051073;28;20542;-73
2022/04/25 03:09:43;;;;;;;9.68;4.65;;;;;;;12.38;85.74;99801.47;5050484;28;20045;-73
2022/04/25 03:12:09;;;;;;;6.93;4.60;;;;;;;12.42;84.62;99797.22;5050638;28;20035;-74
2022/04/25 03:14:35;;;;;;;6.03;4.30;;;;;;;12.41;83.78;99775.66;5050996;28;20029;-73
2022/04/25 03:17:01;;;;;;;8.75;4.38;;;;;;;12.44;83.06;99788.63;5049141;28;20098;-73
2022/04/25 03:19:27;;;;;;;10.40;4.40;;;;;;;12.40;83.05;99802.38;5050795;28;20492;-73
2022/04/25 03:21:53;;;;;;;8.65;4.13;;;;;;;12.52;83.04;99804.28;5050816;28;20105;-73
2022/04/25 03:24:18;;;;;;;10.07;4.93;;;;;;;12.48;83.32;99799.06;5050510;28;20037;-73
2022/04/25 03:26:44;;;;;;;12.40;5.32;;;;;;;12.52;82.85;99806.88;5050863;28;20468;-72
2022/04/25 03:29:10;;;;;;;5.97;4.22;;;;;;;12.44;81.98;99801.56;5057793;28;20060;-73
2022/04/25 03:31:36;;;;;;;8.73;4.82;;;;;;;12.42;82.41;99816.22;5057147;28;20040;-76
2022/04/25 03:34:02;;;;;;;9.48;4.60;;;;;;;12.36;82.63;99794.50;5057113;28;20054;-73
2022/04/25 03:36:28;;;;;;;8.73;4.07;;;;;;;12.30;82.21;99810.81;5057100;28;20612;-74
2022/04/25 03:38:53;;;;;;;8.07;4.40;;;;;;;12.34;82.83;99817.78;5057332;28;20033;-73
2022/04/25 03:41:20;;;;;;;6.25;3.80;;;;;;;12.32;82.88;99811.69;5056252;28;20029;-73
2022/04/25 03:43:46;;;;;;;5.95;4.13;;;;;;;12.12;84.15;99814.78;5057278;28;20047;-73
2022/04/25 03:46:12;;;;;;;10.52;4.70;;;;;;;12.21;84.90;99818.38;5057146;28;20472;-72
2022/04/25 03:48:41;;;;;;;8.88;5.07;;;;;;;12.18;85.18;99810.56;5056874;28;20021;-73
2022/04/25 03:51:06;;;;;;;7.63;4.60;;;;;;;12.34;85.06;99827.28;5057128;28;20053;-72
2022/04/25 03:53:32;;;;;;;9.13;4.40;;;;;;;12.27;85.35;99834.91;5056618;28;20536;-72
2022/04/25 03:58:41;;;;;;;8.98;4.57;;;;;;;12.52;83.93;99834.50;5057045;28;20121;-72
2022/04/25 04:01:07;;;;;;;8.13;4.18;;;;;;;12.45;82.76;99829.22;5055840;28;20116;-72
2022/04/25 04:03:34;;;;;;;6.38;3.72;;;;;;;12.24;83.40;99828.81;5057320;28;20039;-74
2022/04/25 04:06:00;;;;;;;11.38;4.88;;;;;;;11.75;84.57;99797.56;5058344;28;20037;-71
2022/04/25 04:08:25;;;;;;;10.23;4.70;;;;;;;11.75;85.54;99834.66;5056973;28;20394;-72
2022/04/25 04:10:51;;;;;;;9.57;4.55;;;;;;;11.46;87.32;99813.31;5056460;28;20037;-70
2022/04/25 04:13:17;;;;;;;8.30;5.18;;;;;;;11.56;88.57;99843.69;5056549;28;20104;-72
2022/04/25 04:15:43;;;;;;;8.90;5.07;;;;;;;11.72;88.03;99832.00;5055739;28;20040;-75
2022/04/25 04:18:08;;;;;;;14.15;4.53;;;;;;;11.91;87.52;99845.34;5056403;28;20067;-74
2022/04/25 04:20:34;;;;;;;8.48;4.85;;;;;;;12.04;87.35;99841.34;5057240;28;20033;-73
2022/04/25 04:23:01;;;;;;;7.47;4.72;;;;;;;11.90;87.42;99809.97;5056249;28;20084;-74
2022/04/25 04:25:26;;;;;;;11.50;5.22;;;;;;;12.05;87.01;99820.66;5056609;28;20116;-74
2022/04/25 04:27:52;;;;;;;7.63;4.97;;;;;;;12.26;86.98;99840.94;5056535;28;20055;-74
2022/04/25 04:30:18;;;;;;;10.73;5.28;;;;;;;12.39;86.32;99833.41;5056581;28;20100;-74
2022/04/25 04:32:44;;;;;;;6.93;4.93;;;;;;;12.46;86.81;99846.50;5062268;28;20032;-74
2022/04/25 04:35:15;;;;;;;6.30;4.70;;;;;;;12.55;86.57;99829.41;5063041;28;20090;-74
2022/04/25 04:37:41;;;;;;;10.23;5.35;;;;;;;12.60;86.63;99844.16;5056525;28;20055;-73
2022/04/25 04:42:54;;;;;;;8.75;5.47;;;;;;;12.83;86.72;99848.88;5053330;28;20094;-71
2022/04/25 04:45:20;;;;;;;9.57;5.50;;;;;;;12.89;86.41;99853.31;5053585;28;20024;-74
2022/04/25 04:47:45;;;;;;;10.65;5.30;;;;;;;12.90;84.89;99848.16;5053483;28;20040;-77
2022/04/25 04:50:16;;;;;;;9.43;5.47;;;;;;;12.84;86.41;99829.03;5053361;28;20028;-74
2022/04/25 04:52:43;;;;;;;9.60;5.35;;;;;;;12.98;86.46;99844.81;5053244;28;20029;-74
2022/04/25 04:55:09;;;;;;;12.70;5.97;;;;;;;12.64;86.71;99782.94;5053151;28;20039;-74
2022/04/25 04:57:34;;;;;;;9.48;5.60;;;;;;;12.62;88.16;99826.06;5053140;28;20025;-72
2022/04/25 05:00:00;;;;;;;14.65;5.97;;;;;;;12.51;89.11;99832.75;5053252;28;20068;-74
2022/04/25 05:02:26;;;;;;;9.25;5.80;;;;;;;12.39;90.37;99823.06;5052713;28;20055;-74
2022/04/25 05:04:53;;;;;;;10.48;6.22;;;;;;;12.24;91.53;99837.44;5052609;28;20163;-74
2022/04/25 05:07:19;;;;;;;9.60;5.63;;;;;;;12.50;88.29;99838.78;5052707;28;20033;-74
2022/04/25 05:09:44;;;;;;;10.02;5.53;;;;;;;12.54;88.10;99846.63;5053175;28;20036;-74
2022/04/25 05:12:10;;;;;;;9.55;5.30;;;;;;;12.58;88.05;99844.97;5034699;28;20032;-74
2022/04/25 05:14:35;;;;;;;9.95;5.55;;;;;;;12.75;88.30;99858.25;5052799;28;20029;-74
2022/04/25 05:17:01;;;;;;;7.32;5.25;;;;;;;12.87;88.04;99852.41;5052965;28;20170;-71
2022/04/25 05:19:26;;;;;;;8.57;5.00;;;;;;;12.92;85.17;99855.94;5052230;28;20419;-74
2022/04/25 05:21:52;;;;;;;8.10;5.15;;;;;;;13.01;84.44;99858.72;5052658;28;20048;-78
2022/04/25 05:24:17;;;;;;;8.48;4.88;;;;;;;13.11;83.24;99855.41;5052592;28;20057;-74
2022/04/25 05:26:43;;;;;;;6.72;4.68;;;;;;;13.30;82.85;99847.06;5051660;28;20025;-75
2022/04/25 05:29:08;;;;;;;10.15;5.35;;;;;;;13.45;86.90;99849.06;5052745;28;20698;-76
2022/04/25 05:31:35;;;;;;;8.00;5.47;;;;;;;13.54;86.94;99831.03;5052385;28;20031;-74
2022/04/25 05:34:01;;;;;;;9.68;5.45;;;;;;;13.68;85.72;99829.53;5046928;28;20487;-74
2022/04/25 05:36:27;;;;;;;7.85;4.80;;;;;;;13.93;87.89;99836.75;5052372;28;20036;-74
2022/04/25 05:38:52;;;;;;;10.15;5.20;;;;;;;14.02;85.54;99818.72;5039099;28;20026;-74
2022/04/25 05:41:18;;;;;;;8.68;4.32;;;;;;;14.23;81.98;99821.56;5032314;28;20056;-74
2022/04/25 05:43:45;;;;;;;7.68;5.15;;;;;;;14.42;80.84;99833.88;4980685;28;20069;-74
2022/04/25 05:46:10;;;;;;;7.78;4.85;;;;;;;14.49;81.56;99815.78;5014296;28;20026;-74
2022/04/25 05:54:21;;;;;;;8.43;5.55;;;;;;;14.52;82.26;99774.25;4990069;28;20081;-73
2022/04/25 05:56:46;;;;;;;8.98;5.20;;;;;;;14.70;82.23;99809.09;4989939;28;20031;-74
2022/04/25 05:59:12;;;;;;;7.32;5.25;;;;;;;14.81;82.67;99811.78;5008451;28;20033;-74
2022/04/25 06:01:37;;;;;;;9.20;5.22;;;;;;;14.72;81.75;99771.88;5008158;28;20561;-73
2022/04/25 06:04:03;;;;;;;7.25;4.80;;;;;;;15.06;81.82;99809.41;5009216;28;20077;-72
2022/04/25 06:06:28;;;;;;;8.02;4.72;;;;;;;15.13;81.61;99806.00;5008442;28;20100;-74
2022/04/25 06:08:53;;;;;;;6.75;4.55;;;;;;;15.29;81.75;99809.56;5009159;28;20030;-73
2022/04/25 06:11:21;;;;;;;8.85;5.18;;;;;;;15.40;80.75;99801.84;5009181;28;20527;-73
2022/04/25 06:13:47;;;;;;;9.45;5.13;;;;;;;15.51;81.23;99802.78;5008836;28;20049;-75
2022/04/25 06:16:13;;;;;;;8.73;5.10;;;;;;;15.45;77.34;99763.72;4992754;28;20053;-74
2022/04/25 06:18:39;;;;;;;10.50;5.90;;;;;;;15.72;76.34;99782.94;5008842;28;20042;-73
2022/04/25 06:21:04;;;;;;;7.85;5.00;;;;;;;15.79;78.26;99779.53;5008971;28;20033;-74
2022/04/25 06:23:30;;;;;;;9.82;4.82;;;;;;;15.89;77.71;99775.22;5008404;28;20061;-74
2022/04/25 06:25:57;;;;;;;10.18;4.93;;;;;;;15.95;78.83;99772.66;5034681;28;20052;-73
2022/04/25 06:28:25;;;;;;;7.75;4.63;;;;;;;16.09;77.18;99764.91;5049979;28;20025;-73
2022/04/25 06:30:52;;;;;;;10.25;5.15;;;;;;;16.17;79.88;99760.56;5049744;28;20029;-74
2022/04/25 06:33:18;;;;;;;7.75;4.50;;;;;;;16.28;78.43;99756.25;5050822;28;20039;-75
2022/04/25 06:35:49;;;;;;;8.80;4.47;;;;;;;16.31;75.73;99751.06;5050510;28;20032;-74
2022/04/25 06:38:15;;;;;;;9.95;4.63;;;;;;;16.45;73.64;99758.06;5048175;28;20028;-71
2022/04/25 06:40:42;;;;;;;8.63;4.25;;;;;;;16.57;71.35;99765.84;5050237;28;20029;-74
2022/04/25 06:43:08;;;;;;;7.22;3.88;;;;;;;16.62;69.70;99769.34;5050229;28;20172;-75
2022/04/25 06:45:33;;;;;;;11.13;4.38;;;;;;;16.77;69.68;99763.28;5027947;28;20462;-71
2022/04/25 06:47:59;;;;;;;7.28;4.18;;;;;;;16.88;69.81;99767.63;5023556;28;20037;-72
2022/04/25 06:50:24;;;;;;;9.70;4.45;;;;;;;17.00;69.54;99762.44;5050455;28;20599;-73
2022/04/25 06:52:50;;;;;;;10.73;4.30;;;;;;;17.04;69.88;99769.38;5049620;28;20039;-76
2022/04/25 06:55:15;;;;;;;10.57;4.97;;;;;;;17.02;70.50;99762.44;5049724;28;20020;-74
2022/04/25 06:57:42;;;;;;;14.18;4.30;;;;;;;16.83;70.39;99746.75;5050794;28;20029;-74
2022/04/25 07:00:09;;;;;;;13.18;5.15;;;;;;;16.91;72.60;99755.50;5050739;28;20029;-74
2022/04/25 07:02:36;;;;;;;11.15;4.82;;;;;;;17.06;71.95;99791.13;5030575;28;20037;-74
2022/04/25 07:05:04;;;;;;;12.07;4.28;;;;;;;17.09;69.63;99779.81;5049937;28;20033;-75
2022/04/25 07:07:30;;;;;;;12.97;5.00;;;;;;;17.21;68.85;99784.13;5050652;28;20120;-74
2022/04/25 07:09:55;;;;;;;8.40;4.43;;;;;;;17.14;69.32;99783.28;5049753;28;20740;-74
2022/04/25 07:12:21;;;;;;;9.90;4.45;;;;;;;17.27;71.52;99803.28;5050443;28;20024;-73
2022/04/25 07:14:46;;;;;;;9.30;4.45;;;;;;;17.38;71.61;99812.81;5048392;28;20028;-74
2022/04/25 07:17:12;;;;;;;13.40;5.18;;;;;;;17.34;68.85;99813.69;5057461;28;20047;-74
2022/04/25 07:19:39;;;;;;;17.33;4.90;;;;;;;17.27;68.03;99805.88;5050183;28;20068;-74
2022/04/25 07:30:21;;;;;;;19.25;4.93;;;;;;;17.68;65.81;99800.56;5049919;28;20036;-74
2022/04/25 07:32:47;;;;;;;16.02;5.20;;;;;;;17.73;65.99;99822.31;5049919;28;20029;-74
2022/04/25 07:35:12;;;;;;;18.85;4.75;;;;;;;18.04;64.08;99807.41;5048424;28;20025;-73
2022/04/25 07:37:39;;;;;;;18.98;5.05;;;;;;;18.17;63.13;99816.09;5049210;28;20029;-75
2022/04/25 07:40:09;;;;;;;17.92;5.20;;;;;;;18.09;63.90;99795.22;5049387;28;20028;-74
2022/04/25 07:42:35;;;;;;;20.83;4.72;;;;;;;18.07;63.38;99788.28;5031414;28;20468;-74
2022/04/25 07:45:04;;;;;;;18.92;5.60;;;;;;;18.11;64.58;99795.22;5044963;28;20045;-74
2022/04/25 07:47:29;;;;;;;19.20;6.13;;;;;;;18.18;66.25;99798.66;5027244;28;20029;-77
2022/04/25 07:49:55;;;;;;;20.92;7.25;;;;;;;18.23;64.28;99808.22;5044302;28;20280;-74
2022/04/25 07:52:21;;;;;;;21.75;7.30;;;;;;;18.33;64.38;99797.69;5045344;28;20024;-74
2022/04/25 07:54:47;;;;;;;21.08;5.57;;;;;;;18.53;63.81;99793.25;5049207;28;20043;-74
2022/04/25 07:57:12;;;;;;;17.55;5.45;;;;;;;18.74;63.28;99796.56;5049213;28;20457;-74
2022/04/25 07:59:38;;;;;;;26.05;10.05;;;;;;;18.67;62.40;99789.66;5049290;28;20029;-74
2022/04/25 08:02:05;;;;;;;19.90;7.90;;;;;;;18.77;61.94;99767.78;5048849;28;20029;-74
2022/04/25 08:04:30;;;;;;;21.55;5.93;;;;;;;19.12;62.67;99792.81;5044338;28;20409;-73
2022/04/25 08:06:56;;;;;;;16.13;5.30;;;;;;;19.31;62.62;99790.03;5048691;28;20041;-75
2022/04/25 08:09:21;;;;;;;16.85;5.93;;;;;;;19.27;61.43;99760.38;5049717;28;20495;-74
2022/04/25 08:11:47;;;;;;;20.88;7.30;;;;;;;19.42;63.02;99776.84;5049239;28;20459;-76
2022/04/25 08:19:41;;;;;;;24.15;6.18;;;;;;;19.30;61.80;99763.00;5048871;28;20118;-73
2022/04/25 08:22:10;;;;;;;15.63;6.00;;;;;;;19.49;62.35;99771.50;5052826;28;20456;-70
2022/04/25 08:24:36;;;;;;;21.23;4.97;;;;;;;19.46;61.72;99749.72;5052834;28;20465;-76
2022/04/25 08:27:06;;;;;;;20.88;6.47;;;;;;;19.43;62.27;99718.34;5056041;28;20043;-75
2022/04/25 08:29:32;;;;;;;17.60;4.93;;;;;;;19.81;60.39;99761.53;5054165;28;20084;-73
2022/04/25 08:31:58;;;;;;;21.73;6.47;;;;;;;19.94;59.99;99754.41;5054039;28;20041;-74
2022/04/25 08:34:24;;;;;;;17.88;5.65;;;;;;;20.12;58.96;99745.44;5051399;28;20029;-72
2022/04/25 08:36:49;;;;;;;21.27;5.40;;;;;;;20.26;58.15;99755.72;5049803;28;20484;-72
2022/04/25 08:39:15;;;;;;;23.95;7.53;;;;;;;20.31;59.69;99741.69;5051530;28;20025;-74
2022/04/25 08:41:50;;;;;;;23.30;6.53;;;;;;;20.33;58.31;99747.75;5033571;28;20021;-75
2022/04/25 08:44:16;;;;;;;23.00;5.50;;;;;;;20.33;61.01;99720.69;5051514;28;20079;-74
2022/04/25 08:46:44;;;;;;;20.00;6.45;;;;;;;20.54;59.15;99750.94;5051832;28;20027;-75
2022/04/25 08:49:11;;;;;;;24.10;6.30;;;;;;;20.68;61.19;99741.09;5051808;28;20104;-74
2022/04/25 08:51:38;;;;;;;19.38;6.10;;;;;;;20.65;56.87;99735.91;5051782;28;20021;-74
2022/04/25 08:54:08;;;;;;;20.70;7.05;;;;;;;20.70;57.80;99717.47;5051118;28;20040;-75
2022/04/25 08:56:38;;;;;;;27.45;6.40;;;;;;;20.92;57.16;99732.88;5051169;28;20488;-75
2022/04/25 08:59:06;;;;;;;17.25;5.22;;;;;;;21.19;55.21;99736.75;5050727;28;20033;-75
2022/04/25 09:01:32;;;;;;;20.02;4.90;;;;;;;21.34;54.87;99719.84;5051894;28;20091;-74
2022/04/25 09:03:59;;;;;;;18.02;4.35;;;;;;;21.54;54.59;99715.97;5049859;28;20037;-75
2022/04/25 09:06:24;;;;;;;16.77;4.65;;;;;;;21.67;53.47;99716.59;5051555;28;20091;-72
2022/04/25 09:08:50;;;;;;;17.20;5.03;;;;;;;21.61;54.94;99688.72;5052590;28;20036;-73
2022/04/25 09:14:00;;;;;;;20.52;4.88;;;;;;;21.74;54.69;99698.03;5050920;28;20036;-73
2022/04/25 09:16:25;;;;;;;18.38;5.00;;;;;;;21.88;56.17;99694.25;5050833;28;20025;-73
2022/04/25 09:18:51;;;;;;;15.93;4.28;;;;;;;22.19;52.59;99688.31;5050541;28;20035;-74
2022/04/25 09:21:17;;;;;;;20.48;5.28;;;;;;;22.23;51.77;99689.97;5050784;28;20033;-74
2022/04/25 09:23:42;;;;;;;13.65;4.35;;;;;;;22.34;52.93;99687.94;5050358;28;20136;-74
2022/04/25 09:26:08;;;;;;;19.17;4.72;;;;;;;22.54;54.46;99690.13;5050377;28;20110;-74
2022/04/25 09:28:54;;;;;;;19.90;4.90;;;;;;;22.61;53.50;99683.78;5015718;28;20044;-74
2022/04/25 09:31:27;;;;;;;13.85;5.05;;;;;;;22.73;56.42;99671.22;5051229;28;20112;-73
2022/04/25 09:33:54;;;;;;;25.40;5.55;;;;;;;22.82;53.70;99667.47;5060269;28;20072;-74
2022/04/25 09:36:21;;;;;;;17.55;4.50;;;;;;;22.86;52.92;99664.72;5051976;28;20029;-73
2022/04/25 09:38:47;;;;;;;17.85;5.55;;;;;;;22.86;52.62;99664.72;5052277;28;20021;-74
2022/04/25 09:41:16;;;;;;;22.48;5.22;;;;;;;23.00;52.43;99672.25;5051687;28;20037;-72
2022/04/25 09:43:44;;;;;;;24.73;4.68;;;;;;;23.01;53.19;99666.09;5051974;28;20084;-73
2022/04/25 09:46:15;;;;;;;19.77;5.00;;;;;;;23.10;52.93;99660.59;5051456;28;20033;-73
2022/04/25 09:49:01;;;;;;;14.95;4.57;;;;;;;23.10;53.50;99652.69;5051696;28;20040;-72
2022/04/25 09:51:26;;;;;;;16.40;4.50;;;;;;;23.18;51.65;99646.34;5034263;28;20040;-72
2022/04/25 09:53:53;;;;;;;20.25;5.05;;;;;;;23.26;53.59;99658.44;5051516;28;20028;-73
2022/04/25 09:56:20;;;;;;;17.98;4.68;;;;;;;23.42;54.43;99664.09;5051642;28;20040;-71
2022/04/25 09:59:02;;;;;;;15.23;4.28;;;;;;;23.49;52.68;99659.53;5051615;28;20040;-73
2022/04/25 10:01:31;;;;;;;17.73;4.45;;;;;;;23.17;52.27;99637.59;5051771;28;20028;-71
2022/04/25 10:03:57;;;;;;;15.85;4.82;;;;;;;23.37;53.35;99650.19;5050436;28;21203;-73
2022/04/25 10:06:23;;;;;;;21.98;5.60;;;;;;;23.54;52.00;99641.81;5051456;28;20517;-73
2022/04/25 10:08:51;;;;;;;20.08;5.30;;;;;;;23.81;52.28;99647.13;5050957;28;20060;-72
2022/04/25 10:11:19;;;;;;;14.40;4.40;;;;;;;23.95;53.31;99640.59;5051259;28;20083;-73
2022/04/25 10:13:47;;;;;;;17.25;4.95;;;;;;;23.68;58.32;99636.09;5051247;28;20039;-74
2022/04/25 10:16:12;;;;;;;18.38;4.97;;;;;;;23.75;57.60;99632.38;5051191;28;20025;-71
2022/04/25 10:18:39;;;;;;;23.33;5.32;;;;;;;23.90;56.72;99643.34;5051011;28;20037;-75
2022/04/25 10:21:07;;;;;;;18.38;5.22;;;;;;;23.72;56.69;99611.38;5051088;28;20029;-73
2022/04/25 10:23:34;;;;;;;15.05;4.28;;;;;;;23.98;54.80;99637.88;5049637;28;20053;-76
2022/04/25 10:26:01;;;;;;;18.13;4.85;;;;;;;23.93;52.97;99638.03;5032930;28;20049;-73
2022/04/25 10:28:29;;;;;;;21.40;5.45;;;;;;;23.96;52.12;99643.19;5051191;28;20114;-72
2022/04/25 10:31:02;;;;;;;18.83;4.88;;;;;;;24.02;52.82;99637.72;5047653;28;20171;-71
2022/04/25 10:33:48;;;;;;;22.50;5.38;;;;;;;24.15;54.57;99638.19;5049756;28;20038;-72
2022/04/25 10:36:38;;;;;;;20.35;5.25;;;;;;;24.34;59.53;99627.03;5047364;28;20032;-74
2022/04/25 10:39:27;;;;;;;19.27;5.10;;;;;;;24.48;54.62;99622.13;5049814;28;20450;-73
2022/04/25 10:44:36;;;;;;;17.17;4.13;;;;;;;24.50;52.67;99595.69;5046665;28;20099;-73
2022/04/25 10:47:24;;;;;;;18.30;4.50;;;;;;;24.82;52.29;99613.09;5046335;28;20056;-73
2022/04/25 10:50:02;;;;;;;15.15;4.80;;;;;;;24.98;51.22;99620.44;5050221;28;20025;-72
2022/04/25 10:52:34;;;;;;;17.30;4.40;;;;;;;25.07;51.39;99612.19;5032838;28;20095;-72
2022/04/25 10:55:23;;;;;;;18.00;4.80;;;;;;;25.09;48.73;99606.88;5050743;28;20060;-72
2022/04/25 10:58:04;;;;;;;16.88;4.43;;;;;;;25.07;49.66;99620.09;5050340;28;20021;-72
2022/04/25 11:00:45;;;;;;;17.27;4.55;;;;;;;25.26;51.99;99611.50;5050649;28;20040;-74
2022/04/25 11:03:19;;;;;;;18.27;4.70;;;;;;;25.47;49.69;99610.72;5050601;28;20112;-72
2022/04/25 11:05:45;;;;;;;17.48;4.18;;;;;;;25.61;47.45;99620.75;5050653;28;20496;-72
2022/04/25 11:08:20;;;;;;;20.38;5.32;;;;;;;25.81;49.58;99613.84;5050620;28;20029;-71
2022/04/25 11:10:57;;;;;;;19.83;4.97;;;;;;;25.96;46.74;99607.91;5050148;28;20085;-71
2022/04/25 11:13:26;;;;;;;19.58;4.57;;;;;;;26.11;48.06;99606.47;5050397;28;20029;-71
2022/04/25 11:15:56;;;;;;;13.75;3.90;;;;;;;25.93;44.57;99571.03;5049747;28;20044;-70
2022/04/25 11:18:24;;;;;;;18.20;4.43;;;;;;;26.31;46.05;99602.97;5050259;28;20178;-72
2022/04/25 11:20:56;;;;;;;23.80;5.03;;;;;;;26.32;45.54;99607.34;5050173;28;20052;-73
2022/04/25 11:23:30;;;;;;;19.42;4.80;;;;;;;26.29;45.63;99573.09;5049979;28;20041;-72
2022/04/25 11:25:56;;;;;;;18.08;4.55;;;;;;;26.60;45.61;99594.72;5049877;28;20477;-72
2022/04/25 11:28:22;;;;;;;19.30;4.40;;;;;;;26.63;44.67;99600.75;5049984;28;20037;-72
2022/04/25 11:31:12;;;;;;;14.65;4.10;;;;;;;26.65;42.56;99595.38;5049379;28;20507;-73
2022/04/25 11:33:45;;;;;;;12.57;4.28;;;;;;;26.60;43.95;99590.28;5049829;28;20028;-72
2022/04/25 11:36:11;;;;;;;13.65;4.25;;;;;;;26.64;44.08;99594.53;5050281;28;20539;-73
2022/04/25 11:41:23;;;;;;;14.40;4.78;;;;;;;26.95;47.28;99592.31;5043547;28;20036;-72
2022/04/25 11:43:48;;;;;;;15.88;4.63;;;;;;;27.01;46.86;99597.34;5026653;28;20045;-72
2022/04/25 11:46:14;;;;;;;17.23;4.20;;;;;;;27.09;44.59;99589.03;5025445;28;20464;-72
2022/04/25 11:48:40;;;;;;;19.50;4.65;;;;;;;27.12;42.73;99587.13;5028689;28;20076;-72
2022/04/25 11:51:06;;;;;;;16.52;4.30;;;;;;;27.16;42.43;99584.34;5026639;28;20042;-74
2022/04/25 11:53:33;;;;;;;18.33;5.10;;;;;;;27.24;46.10;99582.16;5011341;28;20057;-77
2022/04/25 11:56:01;;;;;;;19.30;4.20;;;;;;;27.35;46.17;99579.03;5006287;28;20045;-73
2022/04/25 11:58:29;;;;;;;23.77;4.88;;;;;;;27.37;43.24;99574.53;5001820;28;20046;-72
2022/04/25 12:00:55;;;;;;;17.27;4.57;;;;;;;27.37;46.73;99572.72;5009230;28;20038;-73
2022/04/25 12:03:23;;;;;;;20.70;5.30;;;;;;;27.26;42.21;99552.03;5011321;28;20112;-72
2022/04/25 12:05:49;;;;;;;15.65;4.53;;;;;;;27.35;42.64;99550.72;5011118;28;20061;-72
2022/04/25 12:16:29;;;;;;;19.60;4.18;;;;;;;26.92;41.56;99547.44;5011469;28;20132;-72
2022/04/25 12:18:57;;;;;;;24.50;5.07;;;;;;;27.17;43.28;99559.56;5011582;28;20131;-72